createdAt,value
2023-02-11T00:00:09.860Z,25.67
2023-02-11T00:01:09.800Z,25.67
2023-02-11T00:02:09.911Z,25.68
2023-02-11T00:03:09.882Z,25.68
2023-02-11T00:04:09.774Z,25.64
2023-02-11T00:05:09.782Z,25.66
2023-02-11T00:06:09.782Z,25.66
2023-02-11T00:07:09.918Z,25.66
2023-02-11T00:08:09.724Z,25.66
2023-02-11T00:09:09.709Z,25.68
2023-02-11T00:10:09.727Z,25.66
2023-02-11T00:11:09.670Z,25.67
2023-02-11T00:12:09.664Z,25.66
2023-02-11T00:13:09.656Z,25.64
2023-02-11T00:14:09.642Z,25.66
2023-02-11T00:15:09.592Z,25.64
2023-02-11T00:16:09.635Z,25.64
2023-02-11T00:17:09.597Z,25.64
2023-02-11T00:18:09.696Z,25.64
2023-02-11T00:19:09.526Z,25.64
2023-02-11T00:20:09.531Z,25.64
2023-02-11T00:21:09.496Z,25.64
2023-02-11T00:22:09.464Z,25.64
2023-02-11T00:23:09.501Z,25.66
2023-02-11T00:24:09.466Z,25.67
2023-02-11T00:25:09.418Z,25.61
2023-02-11T00:26:09.395Z,25.63
2023-02-11T00:27:09.348Z,25.64
2023-02-11T00:28:09.394Z,25.64
2023-02-11T00:29:09.363Z,25.64
2023-02-11T00:30:09.347Z,25.64
2023-02-11T00:31:09.525Z,25.64
2023-02-11T00:32:09.335Z,25.61
2023-02-11T00:33:09.350Z,25.63
2023-02-11T00:34:09.306Z,25.63
2023-02-11T00:35:09.310Z,25.61
2023-02-11T00:36:09.307Z,25.66
2023-02-11T00:37:09.263Z,25.63
2023-02-11T00:38:09.276Z,25.63
2023-02-11T00:39:09.269Z,25.61
2023-02-11T00:40:09.234Z,25.61
2023-02-11T00:41:09.241Z,25.61
2023-02-11T00:42:09.213Z,25.61
2023-02-11T00:43:09.215Z,25.60
2023-02-11T00:44:09.191Z,25.63
2023-02-11T00:45:09.208Z,25.61
2023-02-11T00:46:09.254Z,25.60
2023-02-11T00:47:09.160Z,25.61
2023-02-11T00:48:09.175Z,25.60
2023-02-11T00:49:09.145Z,25.61
2023-02-11T00:50:09.142Z,25.60
2023-02-11T00:51:09.134Z,25.60
2023-02-11T00:52:09.123Z,25.57
2023-02-11T00:53:09.114Z,25.61
2023-02-11T00:54:09.109Z,25.60
2023-02-11T00:55:09.081Z,25.60
2023-02-11T00:56:09.079Z,25.58
2023-02-11T00:57:09.075Z,25.60
2023-02-11T00:58:09.086Z,25.57
2023-02-11T00:59:09.055Z,25.60
2023-02-11T01:00:09.046Z,25.58
2023-02-11T01:01:09.124Z,25.61
2023-02-11T01:02:09.010Z,25.58
2023-02-11T01:03:09.029Z,25.58
2023-02-11T01:04:09.033Z,25.61
2023-02-11T01:05:09.033Z,25.58
2023-02-11T01:06:08.979Z,25.60
2023-02-11T01:07:08.974Z,25.60
2023-02-11T01:08:08.988Z,25.57
2023-02-11T01:09:08.953Z,25.60
2023-02-11T01:10:08.920Z,25.60
2023-02-11T01:11:08.926Z,25.60
2023-02-11T01:12:08.901Z,25.57
2023-02-11T01:13:08.902Z,25.58
2023-02-11T01:14:08.887Z,25.58
2023-02-11T01:15:08.897Z,25.58
2023-02-11T01:16:08.904Z,25.58
2023-02-11T01:17:08.849Z,25.58
2023-02-11T01:18:08.820Z,25.60
2023-02-11T01:19:08.834Z,25.57
2023-02-11T01:20:08.849Z,25.57
2023-02-11T01:21:08.798Z,25.60
2023-02-11T01:22:08.797Z,25.57
2023-02-11T01:23:08.784Z,25.57
2023-02-11T01:24:08.799Z,25.56
2023-02-11T01:25:08.780Z,25.56
2023-02-11T01:26:08.773Z,25.57
2023-02-11T01:27:08.775Z,25.58
2023-02-11T01:28:08.883Z,25.56
2023-02-11T01:29:08.731Z,25.56
2023-02-11T01:30:08.723Z,25.58
2023-02-11T01:31:08.749Z,25.56
2023-02-11T01:32:08.759Z,25.54
2023-02-11T01:33:08.707Z,25.56
2023-02-11T01:34:08.713Z,25.57
2023-02-11T01:35:08.718Z,25.57
2023-02-11T01:36:08.675Z,25.54
2023-02-11T01:37:08.691Z,25.57
2023-02-11T01:38:08.685Z,25.54
2023-02-11T01:39:08.728Z,25.57
2023-02-11T01:40:08.723Z,25.56
2023-02-11T01:41:08.682Z,25.53
2023-02-11T01:42:08.667Z,25.57
2023-02-11T01:43:08.667Z,25.56
2023-02-11T01:44:08.684Z,25.54
2023-02-11T01:45:08.703Z,25.54
2023-02-11T01:46:08.661Z,25.53
2023-02-11T01:47:08.608Z,25.54
2023-02-11T01:48:08.593Z,25.56
2023-02-11T01:49:08.652Z,25.53
2023-02-11T01:50:08.564Z,25.51
2023-02-11T01:51:08.570Z,25.53
2023-02-11T01:52:08.538Z,25.53
2023-02-11T01:53:08.540Z,25.54
2023-02-11T01:54:08.542Z,25.53
2023-02-11T01:55:08.541Z,25.56
2023-02-11T01:56:08.484Z,25.51
2023-02-11T01:57:08.501Z,25.51
2023-02-11T01:58:08.470Z,25.51
2023-02-11T01:59:08.481Z,25.53
2023-02-11T02:00:08.432Z,25.50
2023-02-11T02:01:08.433Z,25.50
2023-02-11T02:02:08.422Z,25.53
2023-02-11T02:03:08.455Z,25.51
2023-02-11T02:04:08.395Z,25.53
2023-02-11T02:05:08.421Z,25.51
2023-02-11T02:06:08.472Z,25.51
2023-02-11T02:07:08.409Z,25.51
2023-02-11T02:08:08.386Z,25.50
2023-02-11T02:09:08.395Z,25.51
2023-02-11T02:10:08.386Z,25.51
2023-02-11T02:11:08.350Z,25.51
2023-02-11T02:12:08.338Z,25.51
2023-02-11T02:13:08.351Z,25.50
2023-02-11T02:14:08.329Z,25.51
2023-02-11T02:15:08.362Z,25.50
2023-02-11T02:16:09.908Z,25.50
2023-02-11T02:17:08.266Z,25.51
2023-02-11T02:18:08.275Z,25.50
2023-02-11T02:19:08.258Z,25.50
2023-02-11T02:20:08.246Z,25.51
2023-02-11T02:21:08.248Z,25.50
2023-02-11T02:22:08.239Z,25.50
2023-02-11T02:23:08.225Z,25.51
2023-02-11T02:24:08.213Z,25.49
2023-02-11T02:25:08.187Z,25.50
2023-02-11T02:26:08.153Z,25.53
2023-02-11T02:27:08.159Z,25.50
2023-02-11T02:28:08.175Z,25.49
2023-02-11T02:29:08.191Z,25.51
2023-02-11T02:30:08.142Z,25.50
2023-02-11T02:31:08.222Z,25.49
2023-02-11T02:32:08.155Z,25.50
2023-02-11T02:33:21.947Z,25.49
2023-02-11T02:34:09.140Z,25.50
2023-02-11T02:35:08.129Z,25.50
2023-02-11T02:36:08.094Z,25.49
2023-02-11T02:37:08.095Z,25.47
2023-02-11T02:38:08.104Z,25.49
2023-02-11T02:39:08.065Z,25.49
2023-02-11T02:40:08.042Z,25.47
2023-02-11T02:41:08.099Z,25.46
2023-02-11T02:42:08.046Z,25.43
2023-02-11T02:43:08.058Z,25.43
2023-02-11T02:44:08.028Z,25.40
2023-02-11T02:45:08.046Z,25.40
2023-02-11T02:46:08.044Z,25.36
2023-02-11T02:47:08.000Z,25.37
2023-02-11T02:48:08.003Z,25.34
2023-02-11T02:49:08.015Z,25.32
2023-02-11T02:50:08.030Z,25.30
2023-02-11T02:51:08.076Z,25.28
2023-02-11T02:52:07.987Z,25.28
2023-02-11T02:53:08.001Z,25.25
2023-02-11T02:54:07.993Z,25.25
2023-02-11T02:55:08.066Z,25.23
2023-02-11T02:56:08.004Z,25.21
2023-02-11T02:57:08.007Z,25.22
2023-02-11T02:58:08.038Z,25.16
2023-02-11T02:59:07.981Z,25.16
2023-02-11T03:00:08.029Z,25.16
2023-02-11T03:01:08.054Z,25.12
2023-02-11T03:02:07.985Z,25.13
2023-02-11T03:03:07.995Z,25.12
2023-02-11T03:04:08.060Z,25.09
2023-02-11T03:05:08.015Z,25.08
2023-02-11T03:06:07.985Z,25.05
2023-02-11T03:07:07.984Z,25.08
2023-02-11T03:08:07.998Z,25.05
2023-02-11T03:09:11.047Z,25.08
2023-02-11T03:10:07.998Z,25.04
2023-02-11T03:11:07.983Z,25.02
2023-02-11T03:12:07.953Z,25.04
2023-02-11T03:13:07.955Z,25.01
2023-02-11T03:14:07.968Z,25.04
2023-02-11T03:15:07.937Z,25.04
2023-02-11T03:16:07.966Z,25.01
2023-02-11T03:17:07.958Z,24.98
2023-02-11T03:18:07.936Z,24.99
2023-02-11T03:19:07.960Z,24.98
2023-02-11T03:20:07.953Z,24.97
2023-02-11T03:21:07.963Z,24.97
2023-02-11T03:22:07.968Z,24.98
2023-02-11T03:23:07.987Z,24.97
2023-02-11T03:24:07.953Z,24.95
2023-02-11T03:25:07.941Z,24.94
2023-02-11T03:26:07.986Z,24.95
2023-02-11T03:27:08.002Z,24.95
2023-02-11T03:28:07.978Z,24.95
2023-02-11T03:29:07.951Z,24.95
2023-02-11T03:30:07.978Z,24.95
2023-02-11T03:31:08.874Z,24.92
2023-02-11T03:32:08.011Z,24.91
2023-02-11T03:33:07.943Z,24.89
2023-02-11T03:34:07.943Z,24.91
2023-02-11T03:35:07.953Z,24.91
2023-02-11T03:36:07.965Z,24.91
2023-02-11T03:37:07.957Z,24.89
2023-02-11T03:38:07.964Z,24.91
2023-02-11T03:39:07.935Z,24.89
2023-02-11T03:40:07.932Z,24.89
2023-02-11T03:41:07.990Z,24.89
2023-02-11T03:42:07.939Z,24.88
2023-02-11T03:43:07.947Z,24.91
2023-02-11T03:44:07.939Z,24.88
2023-02-11T03:45:07.942Z,24.88
2023-02-11T03:46:07.972Z,24.85
2023-02-11T03:47:07.934Z,24.87
2023-02-11T03:48:07.951Z,24.87
2023-02-11T03:49:07.935Z,24.85
2023-02-11T03:50:07.947Z,24.88
2023-02-11T03:51:07.956Z,24.88
2023-02-11T03:52:07.948Z,24.84
2023-02-11T03:53:07.931Z,24.88
2023-02-11T03:54:07.959Z,24.84
2023-02-11T03:55:07.929Z,24.85
2023-02-11T03:56:07.942Z,24.85
2023-02-11T03:57:07.914Z,24.84
2023-02-11T03:58:07.921Z,24.82
2023-02-11T03:59:07.900Z,24.84
2023-02-11T04:00:07.902Z,24.82
2023-02-11T04:01:07.946Z,24.82
2023-02-11T04:02:08.776Z,24.82
2023-02-11T04:03:07.888Z,24.81
2023-02-11T04:04:07.871Z,24.84
2023-02-11T04:05:07.900Z,24.82
2023-02-11T04:06:07.876Z,24.84
2023-02-11T04:07:07.843Z,24.81
2023-02-11T04:08:07.857Z,24.82
2023-02-11T04:09:07.874Z,24.82
2023-02-11T04:10:07.855Z,24.82
2023-02-11T04:11:07.862Z,24.82
2023-02-11T04:12:07.878Z,24.84
2023-02-11T04:13:07.845Z,24.82
2023-02-11T04:14:07.825Z,24.82
2023-02-11T04:15:07.831Z,24.81
2023-02-11T04:16:07.908Z,24.85
2023-02-11T04:17:07.843Z,24.82
2023-02-11T04:18:07.854Z,24.82
2023-02-11T04:19:07.859Z,24.80
2023-02-11T04:20:07.836Z,24.82
2023-02-11T04:21:07.856Z,24.81
2023-02-11T04:22:07.897Z,24.81
2023-02-11T04:23:07.837Z,24.82
2023-02-11T04:24:07.818Z,24.80
2023-02-11T04:25:07.809Z,24.80
2023-02-11T04:26:07.860Z,24.80
2023-02-11T04:27:07.810Z,24.78
2023-02-11T04:28:07.845Z,24.81
2023-02-11T04:29:07.808Z,24.81
2023-02-11T04:30:07.836Z,24.80
2023-02-11T04:31:07.895Z,24.81
2023-02-11T04:32:07.927Z,24.80
2023-02-11T04:33:07.790Z,24.81
2023-02-11T04:34:07.781Z,24.75
2023-02-11T04:35:07.768Z,24.80
2023-02-11T04:36:07.788Z,24.75
2023-02-11T04:37:07.780Z,24.80
2023-02-11T04:38:07.747Z,24.77
2023-02-11T04:39:07.745Z,24.77
2023-02-11T04:40:07.740Z,24.75
2023-02-11T04:41:07.771Z,24.77
2023-02-11T04:42:07.727Z,24.77
2023-02-11T04:43:07.711Z,24.77
2023-02-11T04:44:07.722Z,24.77
2023-02-11T04:45:07.728Z,24.77
2023-02-11T04:46:07.697Z,24.75
2023-02-11T04:47:07.698Z,24.77
2023-02-11T04:48:07.683Z,24.78
2023-02-11T04:49:07.652Z,24.75
2023-02-11T04:50:07.676Z,24.75
2023-02-11T04:51:07.682Z,24.75
2023-02-11T04:52:07.680Z,24.77
2023-02-11T04:53:07.673Z,24.74
2023-02-11T04:54:07.643Z,24.77
2023-02-11T04:55:07.649Z,24.75
2023-02-11T04:56:07.658Z,24.74
2023-02-11T04:57:07.657Z,24.75
2023-02-11T04:58:07.663Z,24.75
2023-02-11T04:59:07.665Z,24.75
2023-02-11T05:00:07.657Z,24.74
2023-02-11T05:01:07.678Z,24.75
2023-02-11T05:02:07.694Z,24.77
2023-02-11T05:03:07.656Z,24.74
2023-02-11T05:04:07.704Z,24.77
2023-02-11T05:05:07.640Z,24.77
2023-02-11T05:06:07.646Z,24.75
2023-02-11T05:07:07.665Z,24.74
2023-02-11T05:08:07.621Z,24.74
2023-02-11T05:09:07.635Z,24.74
2023-02-11T05:10:07.636Z,24.75
2023-02-11T05:11:07.610Z,24.77
2023-02-11T05:12:07.676Z,24.75
2023-02-11T05:13:07.633Z,24.74
2023-02-11T05:14:07.617Z,24.74
2023-02-11T05:15:07.611Z,24.71
2023-02-11T05:16:07.609Z,24.75
2023-02-11T05:17:07.628Z,24.72
2023-02-11T05:18:07.633Z,24.74
2023-02-11T05:19:07.637Z,24.71
2023-02-11T05:20:07.630Z,24.74
2023-02-11T05:21:07.636Z,24.74
2023-02-11T05:22:07.651Z,24.74
2023-02-11T05:23:07.642Z,24.70
2023-02-11T05:24:07.688Z,24.72
2023-02-11T05:25:07.633Z,24.74
2023-02-11T05:26:07.636Z,24.74
2023-02-11T05:27:07.648Z,24.71
2023-02-11T05:28:07.717Z,24.71
2023-02-11T05:29:07.649Z,24.71
2023-02-11T05:30:07.621Z,24.71
2023-02-11T05:31:07.650Z,24.71
2023-02-11T05:32:07.654Z,24.71
2023-02-11T05:33:07.626Z,24.71
2023-02-11T05:34:07.632Z,24.70
2023-02-11T05:35:07.595Z,24.70
2023-02-11T05:36:07.603Z,24.68
2023-02-11T05:37:07.620Z,24.70
2023-02-11T05:38:07.609Z,24.70
2023-02-11T05:39:07.575Z,24.71
2023-02-11T05:40:07.998Z,24.70
2023-02-11T05:41:07.704Z,24.70
2023-02-11T05:42:07.579Z,24.71
2023-02-11T05:43:07.622Z,24.70
2023-02-11T05:44:07.578Z,24.68
2023-02-11T05:45:07.566Z,24.68
2023-02-11T05:46:07.608Z,24.67
2023-02-11T05:47:07.584Z,24.68
2023-02-11T05:48:07.569Z,24.67
2023-02-11T05:49:07.530Z,24.68
2023-02-11T05:50:07.526Z,24.68
2023-02-11T05:51:07.530Z,24.67
2023-02-11T05:52:07.531Z,24.66
2023-02-11T05:53:07.536Z,24.68
2023-02-11T05:54:07.557Z,24.67
2023-02-11T05:55:07.553Z,24.66
2023-02-11T05:56:07.527Z,24.67
2023-02-11T05:57:07.556Z,24.66
2023-02-11T05:58:07.550Z,24.66
2023-02-11T05:59:07.518Z,24.66
2023-02-11T06:00:07.513Z,24.68
2023-02-11T06:01:07.520Z,24.67
2023-02-11T06:02:07.501Z,24.66
2023-02-11T06:03:07.509Z,24.66
2023-02-11T06:04:07.524Z,24.64
2023-02-11T06:05:07.507Z,24.64
2023-02-11T06:06:07.478Z,24.66
2023-02-11T06:07:07.484Z,24.66
2023-02-11T06:08:07.494Z,24.66
2023-02-11T06:09:07.467Z,24.63
2023-02-11T06:10:07.452Z,24.63
2023-02-11T06:11:07.466Z,24.64
2023-02-11T06:12:07.424Z,24.63
2023-02-11T06:13:07.430Z,24.66
2023-02-11T06:14:07.420Z,24.67
2023-02-11T06:15:07.421Z,24.66
2023-02-11T06:16:07.424Z,24.66
2023-02-11T06:17:07.433Z,24.66
2023-02-11T06:18:07.442Z,24.64
2023-02-11T06:19:07.384Z,24.67
2023-02-11T06:20:07.405Z,24.64
2023-02-11T06:21:07.394Z,24.64
2023-02-11T06:22:07.415Z,24.67
2023-02-11T06:23:07.378Z,24.64
2023-02-11T06:24:07.385Z,24.61
2023-02-11T06:25:07.353Z,24.63
2023-02-11T06:26:07.358Z,24.64
2023-02-11T06:27:07.339Z,24.61
2023-02-11T06:28:07.410Z,24.61
2023-02-11T06:29:07.329Z,24.64
2023-02-11T06:30:07.339Z,24.61
2023-02-11T06:31:07.448Z,24.64
2023-02-11T06:32:10.099Z,24.63
2023-02-11T06:33:08.328Z,24.64
2023-02-11T06:34:07.303Z,24.63
2023-02-11T06:35:08.898Z,24.63
2023-02-11T06:36:07.264Z,24.63
2023-02-11T06:37:07.270Z,24.64
2023-02-11T06:38:07.283Z,24.61
2023-02-11T06:39:07.299Z,24.66
2023-02-11T06:40:07.296Z,24.64
2023-02-11T06:41:08.216Z,24.63
2023-02-11T06:42:08.077Z,24.64
2023-02-11T06:43:07.210Z,24.63
2023-02-11T06:44:07.234Z,24.61
2023-02-11T06:45:07.223Z,24.60
2023-02-11T06:46:07.216Z,24.61
2023-02-11T06:47:07.205Z,24.64
2023-02-11T06:48:07.176Z,24.61
2023-02-11T06:49:07.181Z,24.60
2023-02-11T06:50:07.181Z,24.61
2023-02-11T06:51:07.158Z,24.61
2023-02-11T06:52:07.162Z,24.63
2023-02-11T06:53:07.158Z,24.60
2023-02-11T06:54:07.236Z,24.63
2023-02-11T06:55:07.164Z,24.60
2023-02-11T06:56:07.138Z,24.63
2023-02-11T06:57:07.139Z,24.64
2023-02-11T06:58:07.157Z,24.61
2023-02-11T06:59:07.126Z,24.63
2023-02-11T07:00:07.137Z,24.60
2023-02-11T07:01:07.162Z,24.63
2023-02-11T07:02:07.216Z,24.63
2023-02-11T07:03:07.162Z,24.61
2023-02-11T07:04:07.133Z,24.61
2023-02-11T07:05:07.122Z,24.63
2023-02-11T07:06:07.133Z,24.61
2023-02-11T07:07:07.128Z,24.60
2023-02-11T07:08:07.137Z,24.61
2023-02-11T07:09:07.150Z,24.60
2023-02-11T07:10:07.131Z,24.61
2023-02-11T07:11:07.111Z,24.61
2023-02-11T07:12:07.103Z,24.59
2023-02-11T07:13:07.125Z,24.61
2023-02-11T07:14:07.130Z,24.63
2023-02-11T07:15:07.124Z,24.61
2023-02-11T07:16:07.151Z,24.63
2023-02-11T07:17:07.098Z,24.61
2023-02-11T07:18:07.059Z,24.60
2023-02-11T07:19:07.095Z,24.61
2023-02-11T07:20:07.124Z,24.61
2023-02-11T07:21:07.065Z,24.60
2023-02-11T07:22:07.053Z,24.63
2023-02-11T07:23:07.059Z,24.61
2023-02-11T07:24:10.336Z,24.59
2023-02-11T07:25:07.046Z,24.61
2023-02-11T07:26:07.034Z,24.61
2023-02-11T07:27:07.032Z,24.61
2023-02-11T07:28:07.098Z,24.64
2023-02-11T07:29:07.075Z,24.63
2023-02-11T07:30:07.449Z,24.63
2023-02-11T07:31:07.139Z,24.59
2023-02-11T07:32:07.118Z,24.61
2023-02-11T07:33:07.038Z,24.59
2023-02-11T07:34:07.073Z,24.61
2023-02-11T07:35:07.237Z,24.63
2023-02-11T07:36:07.045Z,24.61
2023-02-11T07:37:07.058Z,24.59
2023-02-11T07:38:07.067Z,24.59
2023-02-11T07:39:07.102Z,24.61
2023-02-11T07:40:07.084Z,24.61
2023-02-11T07:41:07.046Z,24.60
2023-02-11T07:42:07.045Z,24.61
2023-02-11T07:43:07.036Z,24.61
2023-02-11T07:44:07.036Z,24.59
2023-02-11T07:45:07.050Z,24.60
2023-02-11T07:46:07.018Z,24.61
2023-02-11T07:47:07.100Z,24.61
2023-02-11T07:48:07.036Z,24.60
2023-02-11T07:49:07.029Z,24.60
2023-02-11T07:50:07.051Z,24.61
2023-02-11T07:51:07.028Z,24.60
2023-02-11T07:52:07.030Z,24.60
2023-02-11T07:53:07.054Z,24.61
2023-02-11T07:54:07.041Z,24.60
2023-02-11T07:55:07.062Z,24.61
2023-02-11T07:56:07.034Z,24.61
2023-02-11T07:57:07.014Z,24.60
2023-02-11T07:58:07.052Z,24.63
2023-02-11T07:59:07.033Z,24.60
2023-02-11T08:00:07.061Z,24.63
2023-02-11T08:01:07.076Z,24.61
2023-02-11T08:02:07.061Z,24.61
2023-02-11T08:03:07.028Z,24.64
2023-02-11T08:04:07.007Z,24.61
2023-02-11T08:05:07.027Z,24.63
2023-02-11T08:06:07.000Z,24.64
2023-02-11T08:07:07.015Z,24.61
2023-02-11T08:08:06.982Z,24.64
2023-02-11T08:09:07.009Z,24.64
2023-02-11T08:10:07.024Z,24.66
2023-02-11T08:11:07.002Z,24.63
2023-02-11T08:12:06.976Z,24.64
2023-02-11T08:13:06.974Z,24.63
2023-02-11T08:14:06.984Z,24.64
2023-02-11T08:15:07.001Z,24.63
2023-02-11T08:16:06.990Z,24.66
2023-02-11T08:17:06.937Z,24.63
2023-02-11T08:18:06.967Z,24.63
2023-02-11T08:19:06.950Z,24.64
2023-02-11T08:20:06.950Z,24.64
2023-02-11T08:21:06.937Z,24.64
2023-02-11T08:22:06.925Z,24.64
2023-02-11T08:23:06.922Z,24.63
2023-02-11T08:24:06.917Z,24.66
2023-02-11T08:25:06.944Z,24.64
2023-02-11T08:26:06.907Z,24.61
2023-02-11T08:27:06.899Z,24.64
2023-02-11T08:28:06.951Z,24.64
2023-02-11T08:29:06.912Z,24.63
2023-02-11T08:30:06.948Z,24.61
2023-02-11T08:31:06.960Z,24.61
2023-02-11T08:32:06.919Z,24.61
2023-02-11T08:33:06.910Z,24.61
2023-02-11T08:34:06.887Z,24.64
2023-02-11T08:35:06.906Z,24.63
2023-02-11T08:36:06.885Z,24.60
2023-02-11T08:37:06.883Z,24.63
2023-02-11T08:38:06.885Z,24.64
2023-02-11T08:39:20.278Z,24.61
2023-02-11T08:40:07.900Z,24.66
2023-02-11T08:41:06.886Z,24.64
2023-02-11T08:42:06.893Z,24.67
2023-02-11T08:43:08.178Z,24.67
2023-02-11T08:44:06.957Z,24.71
2023-02-11T08:45:06.933Z,24.68
2023-02-11T08:46:06.900Z,24.71
2023-02-11T08:47:06.895Z,24.72
2023-02-11T08:48:06.901Z,24.74
2023-02-11T08:49:06.888Z,24.74
2023-02-11T08:50:06.950Z,24.75
2023-02-11T08:51:06.928Z,24.75
2023-02-11T08:52:06.912Z,24.75
2023-02-11T08:53:06.903Z,24.78
2023-02-11T08:54:06.899Z,24.77
2023-02-11T08:55:06.925Z,24.80
2023-02-11T08:56:06.936Z,24.77
2023-02-11T08:57:06.912Z,24.78
2023-02-11T08:58:06.904Z,24.81
2023-02-11T08:59:06.908Z,24.82
2023-02-11T09:00:06.936Z,24.82
2023-02-11T09:01:06.972Z,24.88
2023-02-11T09:02:06.976Z,24.87
2023-02-11T09:03:06.947Z,24.89
2023-02-11T09:04:06.954Z,24.88
2023-02-11T09:05:06.955Z,24.89
2023-02-11T09:06:06.975Z,24.91
2023-02-11T09:07:06.946Z,24.92
2023-02-11T09:08:06.958Z,24.89
2023-02-11T09:09:06.959Z,24.89
2023-02-11T09:10:06.981Z,24.89
2023-02-11T09:11:07.040Z,24.89
2023-02-11T09:12:06.974Z,24.87
2023-02-11T09:13:07.009Z,24.88
2023-02-11T09:14:06.986Z,24.91
2023-02-11T09:15:06.957Z,24.92
2023-02-11T09:16:06.968Z,24.94
2023-02-11T09:17:07.086Z,24.92
2023-02-11T09:18:06.992Z,24.94
2023-02-11T09:19:06.982Z,24.94
2023-02-11T09:20:09.134Z,24.98
2023-02-11T09:21:07.000Z,24.97
2023-02-11T09:22:06.990Z,24.95
2023-02-11T09:23:06.990Z,24.98
2023-02-11T09:24:06.956Z,24.98
2023-02-11T09:25:07.027Z,24.98
2023-02-11T09:26:09.138Z,24.99
2023-02-11T09:27:06.943Z,24.99
2023-02-11T09:28:07.013Z,24.97
2023-02-11T09:29:06.954Z,24.99
2023-02-11T09:30:06.989Z,25.04
2023-02-11T09:31:07.058Z,25.02
2023-02-11T09:32:09.749Z,25.04
2023-02-11T09:33:06.928Z,25.05
2023-02-11T09:34:06.943Z,25.06
2023-02-11T09:35:06.940Z,25.06
2023-02-11T09:36:06.978Z,25.08
2023-02-11T09:37:06.940Z,25.08
2023-02-11T09:38:06.960Z,25.09
2023-02-11T09:39:06.956Z,25.12
2023-02-11T09:40:07.026Z,25.11
2023-02-11T09:41:06.961Z,25.13
2023-02-11T09:42:06.940Z,25.11
2023-02-11T09:43:06.910Z,25.13
2023-02-11T09:44:06.919Z,25.15
2023-02-11T09:45:06.904Z,25.15
2023-02-11T09:46:07.049Z,25.15
2023-02-11T09:47:06.945Z,25.16
2023-02-11T09:48:06.908Z,25.16
2023-02-11T09:49:06.876Z,25.19
2023-02-11T09:50:06.891Z,25.18
2023-02-11T09:51:06.877Z,25.21
2023-02-11T09:52:06.916Z,25.19
2023-02-11T09:53:06.879Z,25.18
2023-02-11T09:54:06.860Z,25.19
2023-02-11T09:55:06.880Z,25.21
2023-02-11T09:56:06.866Z,25.21
2023-02-11T09:57:08.992Z,25.21
2023-02-11T09:58:07.855Z,25.22
2023-02-11T09:59:06.891Z,25.22
2023-02-11T10:00:06.893Z,25.23
2023-02-11T10:01:06.894Z,25.23
2023-02-11T10:02:06.869Z,25.25
2023-02-11T10:03:06.876Z,25.25
2023-02-11T10:04:06.899Z,25.26
2023-02-11T10:05:06.874Z,25.26
2023-02-11T10:06:06.860Z,25.28
2023-02-11T10:07:06.863Z,25.23
2023-02-11T10:08:06.882Z,25.28
2023-02-11T10:09:06.849Z,25.26
2023-02-11T10:10:06.866Z,25.28
2023-02-11T10:11:07.401Z,25.26
2023-02-11T10:12:06.883Z,25.25
2023-02-11T10:13:06.876Z,25.25
2023-02-11T10:14:06.860Z,25.28
2023-02-11T10:15:06.891Z,25.26
2023-02-11T10:16:06.878Z,25.28
2023-02-11T10:17:06.866Z,25.26
2023-02-11T10:18:06.908Z,25.25
2023-02-11T10:19:06.843Z,25.28
2023-02-11T10:20:06.838Z,25.30
2023-02-11T10:21:06.887Z,25.32
2023-02-11T10:22:06.874Z,25.30
2023-02-11T10:23:06.845Z,25.30
2023-02-11T10:24:06.834Z,25.32
2023-02-11T10:25:06.837Z,25.37
2023-02-11T10:26:06.842Z,25.37
2023-02-11T10:27:06.864Z,25.37
2023-02-11T10:28:06.873Z,25.37
2023-02-11T10:29:06.831Z,25.40
2023-02-11T10:30:06.827Z,25.40
2023-02-11T10:31:06.995Z,25.39
2023-02-11T10:32:06.876Z,25.39
2023-02-11T10:33:06.811Z,25.39
2023-02-11T10:34:06.821Z,25.39
2023-02-11T10:35:06.822Z,25.41
2023-02-11T10:36:06.830Z,25.41
2023-02-11T10:37:06.840Z,25.46
2023-02-11T10:38:06.830Z,25.46
2023-02-11T10:39:06.818Z,25.43
2023-02-11T10:40:06.910Z,25.46
2023-02-11T10:41:06.812Z,25.43
2023-02-11T10:42:06.860Z,25.47
2023-02-11T10:43:06.872Z,25.47
2023-02-11T10:44:06.819Z,25.47
2023-02-11T10:45:06.837Z,25.50
2023-02-11T10:46:06.928Z,25.51
2023-02-11T10:47:06.841Z,25.50
2023-02-11T10:48:06.845Z,25.51
2023-02-11T10:49:06.809Z,25.49
2023-02-11T10:50:06.819Z,25.51
2023-02-11T10:51:06.869Z,25.51
2023-02-11T11:02:06.801Z,25.63
2023-02-11T11:19:06.706Z,25.70
2023-02-11T11:32:06.676Z,25.75
2023-02-11T11:33:06.624Z,25.74
2023-02-11T11:34:06.587Z,25.77
2023-02-11T11:35:06.588Z,25.77
2023-02-11T11:36:06.569Z,25.75
2023-02-11T11:37:06.560Z,25.77
2023-02-11T11:38:06.574Z,25.77
2023-02-11T11:39:06.554Z,25.77
2023-02-11T11:40:06.560Z,25.77
2023-02-11T11:41:06.529Z,25.80
2023-02-11T11:42:06.517Z,25.75
2023-02-11T11:43:06.531Z,25.77
2023-02-11T11:44:06.494Z,25.75
2023-02-11T11:45:06.479Z,25.75
2023-02-11T11:46:06.458Z,25.77
2023-02-11T11:47:06.462Z,25.77
2023-02-11T11:48:06.465Z,25.77
2023-02-11T11:49:06.428Z,25.78
2023-02-11T11:50:06.420Z,25.77
2023-02-11T11:51:06.436Z,25.78
2023-02-11T11:52:06.416Z,25.78
2023-02-11T11:53:06.425Z,25.80
2023-02-11T11:54:06.397Z,25.77
2023-02-11T11:55:06.903Z,25.81
2023-02-11T11:56:06.360Z,25.84
2023-02-11T11:57:06.352Z,25.83
2023-02-11T11:58:06.321Z,25.84
2023-02-11T11:59:06.318Z,25.87
2023-02-11T12:00:06.333Z,25.84
2023-02-11T12:01:06.295Z,25.84
2023-02-11T12:02:08.429Z,25.88
2023-02-11T12:03:06.406Z,25.89
2023-02-11T12:04:06.317Z,25.89
2023-02-11T12:05:06.270Z,25.94
2023-02-11T12:06:06.238Z,25.94
2023-02-11T12:07:06.214Z,25.98
2023-02-11T12:08:06.372Z,25.98
2023-02-11T12:09:06.194Z,26.01
2023-02-11T12:10:06.207Z,26.02
2023-02-11T12:11:06.230Z,26.02
2023-02-11T12:12:06.324Z,26.03
2023-02-11T12:13:06.357Z,26.02
2023-02-11T12:14:06.377Z,26.03
2023-02-11T12:15:06.419Z,26.06
2023-02-11T12:16:06.495Z,26.03
2023-02-11T12:18:06.523Z,26.06
2023-02-11T12:19:06.513Z,26.05
2023-02-11T12:20:06.507Z,26.03
2023-02-11T12:21:06.502Z,26.03
2023-02-11T12:22:06.479Z,26.05
2023-02-11T12:23:06.487Z,26.06
2023-02-11T12:24:06.476Z,26.05
2023-02-11T12:25:06.529Z,26.06
2023-02-11T12:26:06.548Z,26.08
2023-02-11T12:27:06.592Z,26.09
2023-02-11T13:10:06.772Z,26.08
2023-02-11T13:11:06.753Z,26.06
2023-02-11T13:12:06.722Z,26.09
2023-02-11T13:13:06.727Z,26.08
2023-02-11T13:14:06.754Z,26.06
2023-02-11T13:15:06.709Z,26.08
2023-02-11T13:16:06.740Z,26.08
2023-02-11T13:17:06.694Z,26.09
2023-02-11T13:18:06.680Z,26.09
2023-02-11T13:19:06.685Z,26.06
2023-02-11T13:21:06.645Z,26.05
2023-02-11T15:48:05.391Z,25.83
2023-02-11T15:49:05.365Z,25.83
2023-02-11T15:50:05.414Z,25.84
2023-02-11T15:51:05.336Z,25.85
2023-02-11T15:52:05.324Z,25.84
2023-02-11T15:53:05.374Z,25.85
2023-02-11T15:54:05.302Z,25.84
2023-02-11T15:55:06.256Z,25.83
2023-02-11T15:56:05.281Z,25.83
2023-02-11T15:57:05.242Z,25.83
2023-02-11T15:58:05.269Z,25.80
2023-02-11T15:59:05.230Z,25.83
2023-02-11T16:00:05.202Z,25.83
2023-02-11T16:01:05.208Z,25.80
2023-02-11T16:02:05.269Z,25.83
2023-02-11T16:03:05.180Z,25.81
2023-02-11T16:04:05.217Z,25.78
2023-02-11T16:05:05.138Z,25.78
2023-02-11T16:06:05.151Z,25.78
2023-02-11T16:07:05.120Z,25.80
2023-02-11T16:08:06.585Z,25.77
2023-02-11T16:09:05.113Z,25.78
2023-02-11T16:10:05.089Z,25.75
2023-02-11T16:11:05.066Z,25.80
2023-02-11T16:12:05.059Z,25.78
2023-02-11T16:13:05.070Z,25.78
2023-02-11T16:14:07.043Z,25.75
2023-02-11T16:15:05.021Z,25.78
2023-02-11T16:16:05.092Z,25.77
2023-02-11T16:17:05.023Z,25.75
2023-02-11T16:18:04.997Z,25.77
2023-02-11T16:19:06.156Z,25.77
2023-02-11T16:20:04.963Z,25.77
2023-02-11T16:21:04.935Z,25.74
2023-02-11T16:22:04.956Z,25.75
2023-02-11T16:23:04.962Z,25.75
2023-02-11T16:24:04.930Z,25.74
2023-02-11T16:25:04.906Z,25.74
2023-02-11T16:26:04.896Z,25.73
2023-02-11T16:27:04.862Z,25.74
2023-02-11T16:28:05.030Z,25.75
2023-02-11T16:29:04.968Z,25.74
2023-02-11T16:30:05.032Z,25.75
2023-02-11T16:31:05.215Z,25.71
2023-02-11T16:32:05.186Z,25.70
2023-02-11T16:33:05.199Z,25.73
2023-02-11T16:34:05.226Z,25.73
2023-02-11T16:35:05.295Z,25.73
2023-02-11T16:36:05.332Z,25.71
2023-02-11T16:37:05.396Z,25.73
2023-02-11T16:38:05.453Z,25.71
2023-02-11T16:39:05.515Z,25.71
2023-02-11T16:40:05.582Z,25.71